createdAt,value
2024-04-25T00:01:57.578Z,100.00
2024-04-25T00:04:29.467Z,100.00
2024-04-25T00:06:57.387Z,100.00
2024-04-25T00:09:27.678Z,100.00
2024-04-25T00:11:57.874Z,100.00
2024-04-25T00:14:25.459Z,100.00
2024-04-25T00:16:53.396Z,100.00
2024-04-25T00:19:20.914Z,100.00
2024-04-25T00:21:49.228Z,100.00
2024-04-25T00:24:18.954Z,100.00
2024-04-25T00:26:46.832Z,100.00
2024-04-25T00:29:15.378Z,100.00
2024-04-25T00:31:44.230Z,100.00
2024-04-25T00:34:12.546Z,100.00
2024-04-25T00:36:40.505Z,100.00
2024-04-25T00:39:07.965Z,100.00
2024-04-25T00:41:35.878Z,100.00
2024-04-25T00:44:04.543Z,100.00
2024-04-25T00:46:32.388Z,100.00
2024-04-25T00:49:01.050Z,100.00
2024-04-25T00:51:31.096Z,100.00
2024-04-25T00:53:58.540Z,100.00
2024-04-25T00:56:30.385Z,100.00
2024-04-25T00:59:01.070Z,100.00
2024-04-25T01:01:30.157Z,100.00
2024-04-25T01:04:02.443Z,100.00
2024-04-25T01:06:34.419Z,100.00
2024-04-25T01:09:02.412Z,100.00
2024-04-25T01:11:34.383Z,100.00
2024-04-25T01:14:02.177Z,100.00
2024-04-25T01:16:30.117Z,100.00
2024-04-25T01:19:00.541Z,100.00
2024-04-25T01:21:28.753Z,100.00
2024-04-25T01:24:01.790Z,100.00
2024-04-25T01:26:33.928Z,100.00
2024-04-25T01:29:02.745Z,100.00
2024-04-25T01:31:30.622Z,100.00
2024-04-25T01:33:58.787Z,100.00
2024-04-25T01:36:26.760Z,100.00
2024-04-25T01:38:54.256Z,100.00
2024-04-25T01:41:22.496Z,100.00
2024-04-25T01:43:49.928Z,100.00
2024-04-25T01:46:17.855Z,100.00
2024-04-25T01:48:48.053Z,100.00
2024-04-25T01:51:18.271Z,100.00
2024-04-25T01:53:50.197Z,100.00
2024-04-25T01:56:21.035Z,100.00
2024-04-25T01:58:50.056Z,100.00
2024-04-25T02:01:17.875Z,100.00
2024-04-25T02:03:45.350Z,100.00
2024-04-25T02:06:18.397Z,100.00
2024-04-25T02:08:46.564Z,100.00
2024-04-25T02:11:17.126Z,100.00
2024-04-25T02:13:47.883Z,100.00
2024-04-25T02:16:15.719Z,100.00
2024-04-25T02:18:44.293Z,100.00
2024-04-25T02:21:33.790Z,100.00
2024-04-25T02:24:19.993Z,100.00
2024-04-25T02:26:48.149Z,100.00
2024-04-25T02:29:15.605Z,100.00
2024-04-25T02:31:46.054Z,100.00
2024-04-25T02:34:16.272Z,100.00
2024-04-25T02:36:44.136Z,100.00
2024-04-25T02:39:11.642Z,100.00
2024-04-25T02:41:40.683Z,100.00
2024-04-25T02:44:08.240Z,100.00
2024-04-25T02:46:36.125Z,100.00
2024-04-25T02:49:03.687Z,100.00
2024-04-25T02:51:33.032Z,100.00
2024-04-25T02:54:03.510Z,100.00
2024-04-25T02:56:31.856Z,100.00
2024-04-25T02:58:59.516Z,100.00
2024-04-25T03:01:27.552Z,100.00
2024-04-25T03:03:55.029Z,100.00
2024-04-25T03:06:23.711Z,100.00
2024-04-25T03:08:54.005Z,100.00
2024-04-25T03:11:24.709Z,100.00
2024-04-25T03:13:53.424Z,100.00
2024-04-25T03:16:23.927Z,100.00
2024-04-25T03:18:51.567Z,100.00
2024-04-25T03:21:20.544Z,100.00
2024-04-25T03:23:48.146Z,100.00
2024-04-25T03:26:16.049Z,100.00
2024-04-25T03:28:46.225Z,100.00
2024-04-25T03:31:16.802Z,100.00
2024-04-25T03:33:45.555Z,100.00
2024-04-25T03:36:13.425Z,100.00
2024-04-25T03:38:44.286Z,100.00
2024-04-25T03:41:18.826Z,100.00
2024-04-25T03:43:46.398Z,100.00
2024-04-25T03:46:16.048Z,100.00
2024-04-25T03:48:43.954Z,100.00
2024-04-25T03:51:16.022Z,100.00
2024-04-25T03:53:43.922Z,100.00
2024-04-25T03:56:15.552Z,100.00
2024-04-25T03:58:43.581Z,100.00
2024-04-25T04:01:17.807Z,100.00
2024-04-25T04:03:45.662Z,100.00
2024-04-25T04:06:13.582Z,100.00
2024-04-25T04:08:41.749Z,100.00
2024-04-25T04:11:10.101Z,100.00
2024-04-25T04:13:43.282Z,100.00
2024-04-25T04:16:14.603Z,100.00
2024-04-25T04:18:42.736Z,100.00
2024-04-25T04:21:12.605Z,100.00
2024-04-25T04:23:44.158Z,100.00
2024-04-25T04:26:12.198Z,100.00
2024-04-25T04:28:43.666Z,100.00
2024-04-25T04:31:13.082Z,100.00
2024-04-25T04:33:41.280Z,100.00
2024-04-25T04:36:09.773Z,100.00
2024-04-25T04:38:37.406Z,100.00
2024-04-25T04:41:07.966Z,100.00
2024-04-25T04:43:41.487Z,100.00
2024-04-25T04:46:10.021Z,100.00
2024-04-25T04:48:42.609Z,100.00
2024-04-25T04:51:10.567Z,100.00
2024-04-25T04:53:38.209Z,100.00
2024-04-25T04:56:10.287Z,100.00
2024-04-25T04:58:39.216Z,100.00
2024-04-25T05:01:07.102Z,100.00
2024-04-25T05:03:37.706Z,100.00
2024-04-25T05:06:09.025Z,100.00
2024-04-25T05:08:40.861Z,100.00
2024-04-25T05:11:16.273Z,100.00
2024-04-25T05:13:43.792Z,100.00
2024-04-25T05:16:17.605Z,100.00
2024-04-25T05:18:45.123Z,100.00
2024-04-25T05:21:16.226Z,100.00
2024-04-25T05:23:45.783Z,100.00
2024-04-25T05:26:19.612Z,100.00
2024-04-25T05:28:50.092Z,100.00
2024-04-25T05:31:18.084Z,100.00
2024-04-25T05:33:50.173Z,100.00
2024-04-25T05:36:22.359Z,100.00
2024-04-25T05:38:50.148Z,100.00
2024-04-25T05:41:18.335Z,100.00
2024-04-25T05:43:45.992Z,100.00
2024-04-25T05:46:17.248Z,100.00
2024-04-25T05:48:44.808Z,100.00
2024-04-25T05:51:18.558Z,100.00
2024-04-25T05:53:46.076Z,100.00
2024-04-25T05:56:14.139Z,100.00
2024-04-25T05:58:44.601Z,100.00
2024-04-25T06:01:13.791Z,100.00
2024-04-25T06:03:41.753Z,100.00
2024-04-25T06:06:12.165Z,100.00
2024-04-25T06:08:43.290Z,100.00
2024-04-25T06:11:14.599Z,100.00
2024-04-25T06:13:42.672Z,100.00
2024-04-25T06:16:12.178Z,100.00
2024-04-25T06:18:49.092Z,100.00
2024-04-25T06:21:17.448Z,100.00
2024-04-25T06:23:45.278Z,100.00
2024-04-25T06:26:13.417Z,100.00
2024-04-25T06:28:42.266Z,100.00
2024-04-25T06:31:10.535Z,100.00
2024-04-25T06:33:47.012Z,100.00
2024-04-25T06:36:14.848Z,100.00
2024-04-25T06:38:42.453Z,100.00
2024-04-25T06:41:15.392Z,100.00
2024-04-25T06:43:42.908Z,100.00
2024-04-25T06:46:10.799Z,100.00
2024-04-25T06:48:42.284Z,100.00
2024-04-25T06:51:10.343Z,100.00
2024-04-25T06:53:37.921Z,100.00
2024-04-25T06:56:08.568Z,100.00
2024-04-25T06:58:36.437Z,100.00
2024-04-25T07:01:05.709Z,100.00
2024-04-25T07:03:36.172Z,100.00
2024-04-25T07:06:04.161Z,100.00
2024-04-25T07:08:32.095Z,100.00
2024-04-25T07:11:02.153Z,100.00
2024-04-25T07:13:29.637Z,100.00
2024-04-25T07:15:59.661Z,100.00
2024-04-25T07:18:27.427Z,100.00
2024-04-25T07:20:55.695Z,100.00
2024-04-25T07:23:24.258Z,100.00
2024-04-25T07:25:52.124Z,100.00
2024-04-25T07:28:25.423Z,100.00
2024-04-25T07:30:54.037Z,100.00
2024-04-25T07:33:21.814Z,100.00
2024-04-25T07:35:50.254Z,100.00
2024-04-25T07:38:20.630Z,100.00
2024-04-25T07:40:48.545Z,100.00
2024-04-25T07:43:16.142Z,100.00
2024-04-25T07:45:47.202Z,100.00
2024-04-25T07:48:15.259Z,100.00
2024-04-25T07:50:46.072Z,100.00
2024-04-25T07:53:13.670Z,100.00
2024-04-25T07:55:42.080Z,100.00
2024-04-25T07:58:13.571Z,100.00
2024-04-25T08:00:45.918Z,100.00
2024-04-25T08:03:16.748Z,100.00
2024-04-25T08:05:44.830Z,100.00
2024-04-25T08:08:12.486Z,100.00
2024-04-25T08:10:43.035Z,100.00
2024-04-25T08:13:13.371Z,100.00
2024-04-25T08:15:50.190Z,100.00
2024-04-25T08:18:20.567Z,100.00
2024-04-25T08:20:48.847Z,100.00
2024-04-25T08:23:16.662Z,100.00
2024-04-25T08:25:44.569Z,100.00
2024-04-25T08:28:14.881Z,100.00
2024-04-25T08:30:44.134Z,100.00
2024-04-25T08:33:11.856Z,100.00
2024-04-25T08:35:40.233Z,100.00
2024-04-25T08:38:08.918Z,100.00
2024-04-25T08:40:38.079Z,100.00
2024-04-25T08:43:06.141Z,100.00
2024-04-25T08:45:35.709Z,100.00
2024-04-25T08:48:05.621Z,100.00
2024-04-25T08:50:36.184Z,100.00
2024-04-25T08:53:05.492Z,100.00
2024-04-25T08:55:35.550Z,100.00
2024-04-25T08:58:04.605Z,100.00
2024-04-25T09:00:34.452Z,100.00
2024-04-25T09:03:09.563Z,100.00
2024-04-25T09:05:37.966Z,99.65
2024-04-25T09:08:09.802Z,95.64
2024-04-25T09:10:41.589Z,92.53
2024-04-25T09:13:10.405Z,93.26
2024-04-25T09:15:38.519Z,87.81
2024-04-25T09:18:06.470Z,86.09
2024-04-25T09:20:40.384Z,78.57
2024-04-25T09:23:07.915Z,73.38
2024-04-25T09:25:35.942Z,73.98
2024-04-25T09:28:04.080Z,72.22
2024-04-25T09:30:34.028Z,69.24
2024-04-25T09:33:07.804Z,69.40
2024-04-25T09:35:45.512Z,71.40
2024-04-25T09:38:13.106Z,69.96
2024-04-25T09:40:50.241Z,66.70
2024-04-25T09:43:21.114Z,66.39
2024-04-25T09:45:52.123Z,67.85
2024-04-25T09:48:22.541Z,66.40
2024-04-25T09:51:13.791Z,66.25
2024-04-25T09:53:56.580Z,69.13
2024-04-25T09:56:30.189Z,65.16
2024-04-25T09:59:06.671Z,63.45
2024-04-25T10:01:35.846Z,66.68
2024-04-25T10:04:04.539Z,63.95
2024-04-25T10:06:33.531Z,61.38
2024-04-25T10:09:04.050Z,62.84
2024-04-25T10:11:38.687Z,63.15
2024-04-25T10:14:09.645Z,63.18
2024-04-25T10:16:37.843Z,62.19
2024-04-25T10:19:09.695Z,58.67
2024-04-25T10:21:48.224Z,56.57
2024-04-25T10:24:15.959Z,53.18
2024-04-25T10:26:48.390Z,52.22
2024-04-25T10:29:19.876Z,52.59
2024-04-25T10:31:47.752Z,51.80
2024-04-25T10:34:18.503Z,52.42
2024-04-25T10:36:47.983Z,50.03
2024-04-25T10:39:19.207Z,51.20
2024-04-25T10:41:47.359Z,52.51
2024-04-25T10:44:20.863Z,50.37
2024-04-25T10:46:49.582Z,48.61
2024-04-25T10:49:17.361Z,48.33
2024-04-25T10:51:45.856Z,47.38
2024-04-25T10:54:15.138Z,47.37
2024-04-25T10:56:43.259Z,46.12
2024-04-25T10:59:11.067Z,46.76
2024-04-25T11:01:41.782Z,47.49
2024-04-25T11:04:09.534Z,46.03
2024-04-25T11:06:38.039Z,45.15
2024-04-25T11:09:14.256Z,44.87
2024-04-25T11:11:43.710Z,46.16
2024-04-25T11:14:11.350Z,45.52
2024-04-25T11:16:42.327Z,46.07
2024-04-25T11:19:18.854Z,45.20
2024-04-25T11:21:51.647Z,46.01
2024-04-25T11:24:23.492Z,43.41
2024-04-25T11:26:51.829Z,42.41
2024-04-25T11:29:19.321Z,44.81
2024-04-25T11:31:48.478Z,40.12
2024-04-25T11:34:23.689Z,41.83
2024-04-25T11:37:05.795Z,41.10
2024-04-25T11:39:37.431Z,43.80
2024-04-25T11:42:08.028Z,39.81
2024-04-25T11:44:35.947Z,38.92
2024-04-25T11:47:04.190Z,40.66
2024-04-25T11:49:32.110Z,37.78
2024-04-25T11:51:59.987Z,40.43
2024-04-25T11:54:29.089Z,37.13
2024-04-25T11:56:57.600Z,36.06
2024-04-25T11:59:25.532Z,36.86
2024-04-25T12:01:56.033Z,34.94
2024-04-25T12:04:23.514Z,34.42
2024-04-25T12:06:51.888Z,33.95
2024-04-25T12:09:28.274Z,32.90
2024-04-25T12:11:59.298Z,33.29
2024-04-25T12:14:29.811Z,35.46
2024-04-25T12:16:57.790Z,36.43
2024-04-25T12:19:26.334Z,36.67
2024-04-25T12:21:54.258Z,34.96
2024-04-25T12:24:22.163Z,35.93
2024-04-25T12:26:50.552Z,33.42
2024-04-25T12:29:20.939Z,32.25
2024-04-25T12:31:50.916Z,34.06
2024-04-25T12:34:20.165Z,32.26
2024-04-25T12:36:49.798Z,32.79
2024-04-25T12:39:20.428Z,33.53
2024-04-25T12:41:52.611Z,33.96
2024-04-25T12:44:21.878Z,33.43
2024-04-25T12:46:52.560Z,33.07
2024-04-25T12:49:41.766Z,32.93
2024-04-25T12:52:12.667Z,32.84
2024-04-25T12:54:40.664Z,36.09
2024-04-25T12:57:08.656Z,36.39
2024-04-25T12:59:39.098Z,35.62
2024-04-25T13:02:07.748Z,33.70
2024-04-25T13:04:36.545Z,31.17
2024-04-25T13:07:04.415Z,31.07
2024-04-25T13:09:38.052Z,31.19
2024-04-25T13:12:11.738Z,30.95
2024-04-25T13:14:42.077Z,31.31
2024-04-25T13:17:13.003Z,31.50
2024-04-25T13:19:40.446Z,33.27
2024-04-25T13:22:08.301Z,34.69
2024-04-25T13:24:35.779Z,36.46
2024-04-25T13:27:07.684Z,36.38
2024-04-25T13:29:35.173Z,36.18
2024-04-25T13:32:08.170Z,36.11
2024-04-25T13:34:38.362Z,35.20
2024-04-25T13:37:06.331Z,34.82
2024-04-25T13:39:34.407Z,34.28
2024-04-25T13:42:04.284Z,35.56
2024-04-25T13:44:32.010Z,36.19
2024-04-25T13:46:59.964Z,37.42
2024-04-25T13:49:34.217Z,38.77
2024-04-25T13:52:02.153Z,38.81
2024-04-25T13:54:35.018Z,39.60
2024-04-25T13:57:08.192Z,40.30
2024-04-25T13:59:35.723Z,40.60
2024-04-25T14:02:04.903Z,40.71
2024-04-25T14:04:36.349Z,37.81
2024-04-25T14:07:07.166Z,34.24
2024-04-25T14:09:36.357Z,33.87
2024-04-25T14:12:10.377Z,33.18
2024-04-25T14:14:40.742Z,31.32
2024-04-25T14:17:11.724Z,30.66
2024-04-25T14:19:40.114Z,28.40
2024-04-25T14:22:13.097Z,28.93
2024-04-25T14:24:41.845Z,28.25
2024-04-25T14:27:31.308Z,26.91
2024-04-25T14:29:58.789Z,25.55
2024-04-25T14:32:26.880Z,25.29
2024-04-25T14:34:56.744Z,25.53
2024-04-25T14:37:25.975Z,24.80
2024-04-25T14:39:55.667Z,25.55
2024-04-25T14:42:26.639Z,25.51
2024-04-25T14:44:58.130Z,24.69
2024-04-25T14:47:26.401Z,24.01
2024-04-25T14:49:57.061Z,23.55
2024-04-25T14:52:27.712Z,22.41
2024-04-25T14:54:55.605Z,22.15
2024-04-25T14:57:24.732Z,23.07
2024-04-25T14:59:52.372Z,22.82
2024-04-25T15:02:20.653Z,21.88
2024-04-25T15:04:49.911Z,21.65
2024-04-25T15:07:19.074Z,21.64
2024-04-25T15:09:49.323Z,21.77
2024-04-25T15:12:17.502Z,23.78
2024-04-25T15:14:45.980Z,22.75
2024-04-25T15:17:18.320Z,22.72
2024-04-25T15:19:48.153Z,22.54
2024-04-25T15:22:19.247Z,21.70
2024-04-25T15:24:49.351Z,21.37
2024-04-25T15:27:17.601Z,21.76
2024-04-25T15:29:46.130Z,22.67
2024-04-25T15:32:14.342Z,22.14
2024-04-25T15:34:41.848Z,22.81
2024-04-25T15:37:14.435Z,21.90
2024-04-25T15:39:44.934Z,22.42
2024-04-25T15:42:15.412Z,22.79
2024-04-25T15:44:43.059Z,23.17
2024-04-25T15:47:12.706Z,23.32
2024-04-25T15:49:40.472Z,24.56
2024-04-25T15:52:11.640Z,25.78
2024-04-25T15:54:39.408Z,26.35
2024-04-25T15:57:07.254Z,28.26
2024-04-25T15:59:34.736Z,32.20
2024-04-25T16:02:02.702Z,33.72
2024-04-25T16:04:30.501Z,37.05
2024-04-25T16:06:58.697Z,36.82
2024-04-25T16:09:27.183Z,38.31
2024-04-25T16:12:05.500Z,39.66
2024-04-25T16:14:38.112Z,39.32
2024-04-25T16:17:06.379Z,40.11
2024-04-25T16:19:36.709Z,39.90
2024-04-25T16:22:04.696Z,41.38
2024-04-25T16:24:34.433Z,42.10
2024-04-25T16:27:04.740Z,43.37
2024-04-25T16:29:36.858Z,41.75
2024-04-25T16:32:04.974Z,42.41
2024-04-25T16:34:35.360Z,42.28
2024-04-25T16:37:05.718Z,42.16
2024-04-25T16:39:33.543Z,43.16
2024-04-25T16:42:01.428Z,44.79
2024-04-25T16:44:29.132Z,44.86
2024-04-25T16:46:57.295Z,43.42
2024-04-25T16:49:24.902Z,42.54
2024-04-25T16:51:52.842Z,43.32
2024-04-25T16:54:26.883Z,43.68
2024-04-25T16:56:55.501Z,42.72
2024-04-25T16:59:26.060Z,42.32
2024-04-25T17:01:53.998Z,40.50
2024-04-25T17:04:27.766Z,38.90
2024-04-25T17:06:58.273Z,38.33
2024-04-25T17:09:28.357Z,36.97
2024-04-25T17:11:56.830Z,36.18
2024-04-25T17:14:27.327Z,37.05
2024-04-25T17:16:55.315Z,36.77
2024-04-25T17:19:22.868Z,38.43
2024-04-25T17:21:50.755Z,40.65
2024-04-25T17:24:20.891Z,42.24
2024-04-25T17:26:50.341Z,44.97
2024-04-25T17:29:22.424Z,45.36
2024-04-25T17:31:50.417Z,45.54
2024-04-25T17:34:22.556Z,45.97
2024-04-25T17:36:56.360Z,48.11
2024-04-25T17:39:23.904Z,48.19
2024-04-25T17:41:51.898Z,49.93
2024-04-25T17:44:19.477Z,51.15
2024-04-25T17:46:47.508Z,53.13
2024-04-25T17:49:17.595Z,52.48
2024-04-25T17:51:45.962Z,53.00
2024-04-25T17:54:13.476Z,52.59
2024-04-25T17:56:44.568Z,52.88
2024-04-25T17:59:12.052Z,54.22
2024-04-25T18:01:46.758Z,54.71
2024-04-25T18:04:14.688Z,55.06
2024-04-25T18:06:44.339Z,56.80
2024-04-25T18:09:16.237Z,57.18
2024-04-25T18:11:44.176Z,58.32
2024-04-25T18:14:11.668Z,60.57
2024-04-25T18:16:42.385Z,59.76
2024-04-25T18:19:10.327Z,60.91
2024-04-25T18:21:41.094Z,60.13
2024-04-25T18:24:18.089Z,60.60
2024-04-25T18:26:48.719Z,61.89
2024-04-25T18:29:16.735Z,62.94
2024-04-25T18:31:44.719Z,63.39
2024-04-25T18:34:12.317Z,63.50
2024-04-25T18:36:43.269Z,63.91
2024-04-25T18:39:12.236Z,65.05
2024-04-25T18:41:44.084Z,66.13
2024-04-25T18:44:14.736Z,66.81
2024-04-25T18:46:42.640Z,66.64
2024-04-25T18:49:13.182Z,67.66
2024-04-25T18:51:41.336Z,67.33
2024-04-25T18:54:09.449Z,67.35
2024-04-25T18:56:37.500Z,69.49
2024-04-25T18:59:06.535Z,70.46
2024-04-25T19:01:34.590Z,69.99
2024-04-25T19:04:02.138Z,69.68
2024-04-25T19:06:30.068Z,70.74
2024-04-25T19:08:58.758Z,71.97
2024-04-25T19:11:30.767Z,71.74
2024-04-25T19:13:58.543Z,71.53
2024-04-25T19:16:27.548Z,73.79
2024-04-25T19:18:55.738Z,72.88
2024-04-25T19:21:23.746Z,75.70
2024-04-25T19:23:52.196Z,75.19
2024-04-25T19:26:22.901Z,77.40
2024-04-25T19:28:50.490Z,80.20
2024-04-25T19:31:21.130Z,80.84
2024-04-25T19:33:53.553Z,78.79
2024-04-25T19:36:21.729Z,84.16
2024-04-25T19:38:50.342Z,87.99
2024-04-25T19:41:21.643Z,82.74
2024-04-25T19:43:51.805Z,84.84
2024-04-25T19:46:23.112Z,86.84
2024-04-25T19:48:51.210Z,85.16
2024-04-25T19:51:20.001Z,89.12
2024-04-25T19:53:50.470Z,91.12
2024-04-25T19:56:24.303Z,90.25
2024-04-25T19:58:57.979Z,92.61
2024-04-25T20:01:27.036Z,91.59
2024-04-25T20:03:54.622Z,92.45
2024-04-25T20:06:25.632Z,91.80
2024-04-25T20:08:58.986Z,91.83
2024-04-25T20:11:29.911Z,92.20
2024-04-25T20:13:57.450Z,94.26
2024-04-25T20:16:25.496Z,93.71
2024-04-25T20:19:12.954Z,97.44
2024-04-25T20:21:43.202Z,94.92
2024-04-25T20:24:11.332Z,98.24
2024-04-25T20:26:39.802Z,100.00
2024-04-25T20:29:07.711Z,100.00
2024-04-25T20:31:36.337Z,100.00
2024-04-25T20:34:06.608Z,100.00
2024-04-25T20:36:36.441Z,100.00
2024-04-25T20:39:04.205Z,100.00
2024-04-25T20:41:35.190Z,100.00
2024-04-25T20:44:02.646Z,100.00
2024-04-25T20:46:30.580Z,100.00
2024-04-25T20:48:58.284Z,100.00
2024-04-25T20:51:26.816Z,100.00
2024-04-25T20:53:54.819Z,100.00
2024-04-25T20:56:23.843Z,100.00
2024-04-25T20:58:56.981Z,100.00
2024-04-25T21:01:25.255Z,100.00
2024-04-25T21:03:52.770Z,100.00
2024-04-25T21:06:23.957Z,100.00
2024-04-25T21:08:54.911Z,100.00
2024-04-25T21:11:25.285Z,100.00
2024-04-25T21:13:55.263Z,100.00
2024-04-25T21:16:30.426Z,100.00
2024-04-25T21:18:58.460Z,100.00
2024-04-25T21:21:29.253Z,100.00
2024-04-25T21:23:56.733Z,100.00
2024-04-25T21:26:26.557Z,100.00
2024-04-25T21:28:57.214Z,100.00
2024-04-25T21:31:25.986Z,100.00
2024-04-25T21:33:56.395Z,100.00
2024-04-25T21:36:24.536Z,100.00
2024-04-25T21:38:53.071Z,100.00
2024-04-25T21:41:21.222Z,100.00
2024-04-25T21:43:48.940Z,100.00
2024-04-25T21:46:16.809Z,100.00
2024-04-25T21:48:48.024Z,100.00
2024-04-25T21:51:21.008Z,100.00
2024-04-25T21:53:48.927Z,100.00
2024-04-25T21:56:16.926Z,100.00
2024-04-25T21:58:44.398Z,100.00
2024-04-25T22:01:12.833Z,100.00
2024-04-25T22:03:43.477Z,100.00
2024-04-25T22:06:21.095Z,100.00
2024-04-25T22:08:51.734Z,100.00
2024-04-25T22:11:20.629Z,100.00
2024-04-25T22:13:48.262Z,100.00
2024-04-25T22:16:16.862Z,100.00
2024-04-25T22:18:50.934Z,100.00
2024-04-25T22:21:21.058Z,100.00
2024-04-25T22:23:58.320Z,100.00
2024-04-25T22:26:26.268Z,100.00
2024-04-25T22:28:54.188Z,100.00
2024-04-25T22:31:22.887Z,100.00
2024-04-25T22:33:50.531Z,100.00
2024-04-25T22:36:22.391Z,100.00
2024-04-25T22:38:49.893Z,100.00
2024-04-25T22:41:25.287Z,100.00
2024-04-25T22:43:52.785Z,100.00
2024-04-25T22:46:21.003Z,100.00
2024-04-25T22:48:51.854Z,100.00
2024-04-25T22:51:22.089Z,100.00
2024-04-25T22:53:56.112Z,100.00
2024-04-25T22:56:24.063Z,100.00
2024-04-25T22:58:51.666Z,100.00
2024-04-25T23:01:22.302Z,100.00
2024-04-25T23:03:52.730Z,100.00
2024-04-25T23:06:23.491Z,100.00
2024-04-25T23:08:51.092Z,100.00
2024-04-25T23:11:20.607Z,100.00
2024-04-25T23:13:52.440Z,100.00
2024-04-25T23:16:23.605Z,100.00
2024-04-25T23:18:51.168Z,100.00
2024-04-25T23:21:19.070Z,100.00
2024-04-25T23:23:46.633Z,100.00
2024-04-25T23:26:18.572Z,100.00
2024-04-25T23:28:46.118Z,100.00
2024-04-25T23:31:21.017Z,100.00
2024-04-25T23:33:48.843Z,100.00
2024-04-25T23:36:17.059Z,100.00
2024-04-25T23:38:48.030Z,100.00
2024-04-25T23:41:17.211Z,100.00
2024-04-25T23:43:44.849Z,100.00
2024-04-25T23:46:12.871Z,100.00
2024-04-25T23:48:42.060Z,100.00
2024-04-25T23:51:10.964Z,100.00
2024-04-25T23:53:38.707Z,100.00
2024-04-25T23:56:06.883Z,100.00
2024-04-25T23:58:34.417Z,100.00
